createdAt,value
2018-02-27T04:30:19.628Z,42.10
2018-02-27T04:32:47.300Z,50.30
2018-02-27T04:35:14.971Z,43.65
2018-02-27T04:37:42.734Z,46.00
2018-02-27T04:40:10.497Z,48.75
2018-02-27T04:42:38.260Z,52.20
2018-02-27T04:45:05.945Z,41.20
2018-02-27T04:47:34.502Z,47.97
2018-02-27T04:50:02.267Z,43.90
2018-02-27T04:52:29.949Z,50.95
2018-02-27T04:54:57.639Z,49.17
2018-02-27T04:57:26.083Z,50.95
2018-02-27T04:59:53.830Z,48.38
2018-02-27T05:02:21.640Z,50.70
2018-02-27T05:04:50.174Z,57.33
2018-02-27T05:07:18.040Z,47.85
2018-02-27T05:09:45.725Z,49.65
2018-02-27T05:12:13.384Z,49.47
2018-02-27T05:14:41.040Z,55.00
2018-02-27T05:17:08.804Z,41.05
2018-02-27T05:19:36.455Z,44.25
2018-02-27T05:22:04.147Z,56.67
2018-02-27T05:24:32.572Z,51.15
2018-02-27T05:27:00.347Z,62.45
2018-02-27T05:29:28.028Z,54.78
2018-02-27T05:31:55.659Z,44.65
2018-02-27T05:34:23.291Z,47.03
2018-02-27T05:36:51.008Z,51.25
2018-02-27T05:39:18.657Z,60.10
2018-02-27T05:41:46.324Z,46.28
2018-02-27T05:44:14.023Z,57.05
2018-02-27T05:46:42.437Z,52.30
2018-02-27T05:49:10.078Z,50.47
2018-02-27T05:51:37.792Z,57.58
2018-02-27T05:54:05.428Z,58.35
2018-02-27T05:56:33.848Z,47.62
2018-02-27T05:59:02.286Z,52.15
2018-02-27T06:01:29.950Z,57.95
2018-02-27T06:03:57.597Z,50.88
2018-02-27T06:06:25.292Z,62.55
2018-02-27T06:08:52.924Z,51.50
2018-02-27T06:11:20.576Z,47.85
2018-02-27T06:13:48.236Z,59.67
2018-02-27T06:16:15.872Z,75.28
2018-02-27T06:18:43.515Z,52.50
2018-02-27T06:21:11.959Z,60.10
2018-02-27T06:23:39.604Z,50.85
2018-02-27T06:26:07.292Z,44.70
2018-02-27T06:28:34.932Z,50.97
2018-02-27T06:31:02.572Z,58.85
2018-02-27T06:33:30.232Z,70.32
2018-02-27T06:35:57.877Z,54.75
2018-02-27T06:38:25.540Z,57.38
2018-02-27T06:40:53.180Z,51.67
2018-02-27T06:43:21.588Z,61.13
2018-02-27T06:45:49.269Z,52.83
2018-02-27T06:48:17.673Z,50.58
2018-02-27T06:50:45.315Z,61.63
2018-02-27T06:53:12.980Z,60.38
2018-02-27T06:55:40.620Z,42.67
2018-02-27T06:58:08.254Z,61.30
2018-02-27T07:00:35.919Z,64.43
2018-02-27T07:03:03.572Z,56.00
2018-02-27T07:05:31.276Z,59.22
2018-02-27T07:07:58.916Z,50.90
2018-02-27T07:10:26.579Z,54.53
2018-02-27T07:12:54.256Z,49.92
2018-02-27T07:15:21.892Z,62.78
2018-02-27T07:17:49.532Z,56.90
2018-02-27T07:20:17.961Z,73.47
2018-02-27T07:22:45.598Z,51.33
2018-02-27T07:25:13.281Z,54.47
2018-02-27T07:27:40.923Z,70.60
2018-02-27T07:30:08.561Z,69.32
2018-02-27T07:32:36.257Z,58.83
2018-02-27T07:35:03.911Z,55.00
2018-02-27T07:37:31.544Z,57.03
2018-02-27T07:39:59.203Z,61.40
2018-02-27T07:42:26.839Z,53.78
2018-02-27T07:44:54.550Z,52.50
2018-02-27T07:47:22.188Z,52.28
2018-02-27T07:49:49.833Z,49.45
2018-02-27T07:52:17.504Z,52.00
2018-02-27T07:54:45.140Z,61.83
2018-02-27T07:57:13.544Z,57.08
2018-02-27T07:59:41.209Z,54.33
2018-02-27T08:02:08.849Z,47.90
2018-02-27T08:04:37.400Z,56.45
2018-02-27T08:07:05.047Z,56.50
2018-02-27T08:09:32.684Z,55.55
2018-02-27T08:12:00.384Z,62.95
2018-02-27T08:14:28.024Z,50.60
2018-02-27T08:16:55.669Z,51.25
2018-02-27T08:19:23.356Z,55.80
2018-02-27T08:21:50.993Z,48.00
2018-02-27T08:24:18.628Z,51.22
2018-02-27T08:26:46.320Z,54.30
2018-02-27T08:29:13.962Z,53.38
2018-02-27T08:31:41.607Z,50.88
2018-02-27T08:34:09.298Z,55.28
2018-02-27T08:36:36.941Z,52.17
2018-02-27T08:39:04.577Z,48.67
2018-02-27T08:41:33.005Z,55.40
2018-02-27T08:44:00.692Z,49.28
2018-02-27T08:46:28.372Z,37.47
2018-02-27T08:48:56.771Z,48.22
2018-02-27T08:51:24.412Z,57.40
2018-02-27T08:53:52.848Z,50.95
2018-02-27T08:56:20.487Z,58.17
2018-02-27T08:58:48.142Z,54.90
2018-02-27T09:01:15.830Z,47.20
2018-02-27T09:03:43.475Z,49.28
2018-02-27T09:06:11.115Z,55.55
2018-02-27T09:08:38.781Z,61.37
2018-02-27T09:11:06.416Z,55.67
2018-02-27T09:13:34.877Z,51.13
2018-02-27T09:16:02.520Z,63.75
2018-02-27T09:18:30.164Z,56.90
2018-02-27T09:20:57.836Z,56.33
2018-02-27T09:23:25.469Z,57.72
2018-02-27T09:25:53.095Z,51.50
2018-02-27T09:28:21.538Z,55.22
2018-02-27T09:30:49.180Z,51.80
2018-02-27T09:33:16.829Z,64.82
2018-02-27T09:35:44.536Z,55.12
2018-02-27T09:38:12.212Z,54.38
2018-02-27T09:40:40.634Z,46.60
2018-02-27T09:43:08.324Z,53.83
2018-02-27T09:45:35.968Z,53.55
2018-02-27T09:48:03.609Z,55.35
2018-02-27T09:50:31.284Z,50.05
2018-02-27T09:52:58.916Z,52.55
2018-02-27T09:55:26.552Z,49.88
2018-02-27T09:57:55.000Z,59.15
2018-02-27T10:00:22.644Z,58.03
2018-02-27T10:02:50.285Z,63.20
2018-02-27T10:05:17.971Z,47.83
2018-02-27T10:07:45.605Z,44.45
2018-02-27T10:10:13.245Z,38.50
2018-02-27T10:12:40.928Z,38.80
2018-02-27T10:15:08.564Z,56.37
2018-02-27T10:17:36.216Z,42.78
2018-02-27T10:20:04.636Z,44.22
2018-02-27T10:22:32.281Z,41.80
2018-02-27T10:24:59.976Z,34.38
2018-02-27T10:27:27.656Z,38.35
2018-02-27T10:29:55.300Z,38.85
2018-02-27T10:32:22.966Z,43.97
2018-02-27T10:34:50.600Z,42.78
2018-02-27T10:37:18.241Z,41.70
2018-02-27T10:39:45.927Z,37.00
2018-02-27T10:42:13.563Z,45.85
2018-02-27T10:44:41.191Z,38.45
2018-02-27T10:47:09.617Z,38.00
2018-02-27T10:49:37.252Z,42.72
2018-02-27T10:52:04.889Z,40.33
2018-02-27T10:54:33.332Z,36.53
2018-02-27T10:57:00.972Z,46.28
2018-02-27T10:59:28.608Z,39.25
2018-02-27T11:01:56.265Z,27.58
2018-02-27T11:04:23.908Z,40.70
2018-02-27T11:06:52.308Z,37.17
2018-02-27T11:09:19.964Z,45.88
2018-02-27T11:11:47.596Z,40.05
2018-02-27T11:14:15.277Z,34.75
2018-02-27T11:16:43.683Z,34.03
2018-02-27T11:19:11.328Z,32.25
2018-02-27T11:21:39.005Z,36.17
2018-02-27T11:24:06.636Z,32.25
2018-02-27T11:26:35.040Z,33.65
2018-02-27T11:29:02.720Z,41.97
2018-02-27T11:31:30.352Z,31.83
2018-02-27T11:33:57.988Z,30.35
2018-02-27T11:36:26.428Z,35.85
2018-02-27T11:38:54.064Z,36.22
2018-02-27T11:41:22.572Z,30.77
2018-02-27T11:43:50.255Z,32.10
2018-02-27T11:46:17.893Z,29.27
2018-02-27T11:48:45.533Z,30.52
2018-02-27T11:51:13.209Z,30.60
2018-02-27T11:53:40.844Z,30.27
2018-02-27T11:56:08.485Z,33.08
2018-02-27T11:58:36.140Z,34.97
2018-02-27T12:01:03.772Z,33.75
2018-02-27T12:03:31.453Z,33.45
2018-02-27T12:05:59.848Z,32.13
2018-02-27T12:08:27.487Z,33.33
2018-02-27T12:10:55.938Z,27.70
2018-02-27T12:13:23.578Z,45.70
2018-02-27T12:15:51.218Z,34.58
2018-02-27T12:18:18.901Z,30.33
2018-02-27T12:20:46.541Z,42.03
2018-02-27T12:23:14.177Z,27.95
2018-02-27T12:25:41.840Z,33.47
2018-02-27T12:28:09.473Z,33.17
2018-02-27T12:30:37.172Z,35.60
2018-02-27T12:33:04.808Z,31.83
2018-02-27T12:35:33.214Z,33.53
2018-02-27T12:38:00.893Z,28.23
2018-02-27T12:40:28.524Z,34.70
2018-02-27T12:42:56.161Z,33.28
2018-02-27T12:45:24.612Z,26.08
2018-02-27T12:47:52.245Z,27.33
2018-02-27T12:50:19.892Z,29.23
2018-02-27T12:52:47.574Z,31.23
2018-02-27T12:55:15.973Z,24.15
2018-02-27T12:57:43.624Z,28.45
2018-02-27T13:00:11.296Z,34.58
2018-02-27T13:02:38.932Z,27.33
2018-02-27T13:05:06.564Z,21.62
2018-02-27T13:07:34.247Z,26.70
2018-02-27T13:10:01.905Z,31.23
2018-02-27T13:12:29.608Z,27.60
2018-02-27T13:14:58.014Z,29.75
2018-02-27T13:17:26.411Z,24.92
2018-02-27T13:19:54.084Z,19.77
2018-02-27T13:22:21.727Z,28.73
2018-02-27T13:24:49.356Z,28.05
2018-02-27T13:27:17.800Z,20.00
2018-02-27T13:29:45.440Z,18.58
2018-02-27T13:32:13.077Z,29.27
2018-02-27T13:34:40.756Z,27.80
2018-02-27T13:37:08.385Z,24.17
2018-02-27T13:39:36.781Z,36.10
2018-02-27T13:42:04.469Z,23.98
2018-02-27T13:44:32.112Z,24.60
2018-02-27T13:46:59.740Z,25.37
2018-02-27T13:49:28.161Z,24.87
2018-02-27T13:51:55.806Z,26.48
2018-02-27T13:54:23.478Z,28.30
2018-02-27T13:56:51.112Z,27.50
2018-02-27T13:59:18.884Z,22.90
2018-02-27T14:01:46.575Z,27.62
2018-02-27T14:04:14.387Z,19.75
2018-02-27T14:06:42.791Z,30.35
2018-02-27T14:09:10.464Z,23.42
2018-02-27T14:11:38.941Z,20.92
2018-02-27T14:14:06.589Z,21.45
2018-02-27T14:16:34.255Z,26.17
2018-02-27T14:19:01.892Z,30.40
2018-02-27T14:21:30.289Z,21.87
2018-02-27T14:23:57.967Z,26.60
2018-02-27T14:26:25.603Z,25.05
2018-02-27T14:28:53.248Z,19.52
2018-02-27T14:31:22.514Z,22.87
2018-02-27T14:33:50.249Z,24.70
2018-02-27T14:36:17.923Z,25.35
2018-02-27T14:38:45.600Z,25.33
2018-02-27T14:41:13.244Z,24.80
2018-02-27T14:43:40.884Z,23.12
2018-02-27T14:46:08.565Z,23.40
2018-02-27T14:48:36.212Z,22.02
2018-02-27T14:51:03.863Z,18.80
2018-02-27T14:53:31.568Z,19.33
2018-02-27T14:55:59.208Z,22.50
2018-02-27T14:58:27.440Z,21.67
2018-02-27T15:00:55.188Z,21.37
2018-02-27T15:03:23.586Z,22.80
2018-02-27T15:05:51.234Z,20.05
2018-02-27T15:08:19.728Z,22.83
2018-02-27T15:10:47.378Z,24.23
2018-02-27T15:13:15.008Z,21.27
2018-02-27T15:15:42.682Z,19.48
2018-02-27T15:18:11.119Z,22.83
2018-02-27T15:20:39.869Z,29.35
2018-02-27T15:23:07.595Z,24.00
2018-02-27T15:25:35.240Z,22.75
2018-02-27T15:28:02.873Z,31.98
2018-02-27T15:30:30.548Z,19.45
2018-02-27T15:32:58.952Z,25.37
2018-02-27T15:35:26.593Z,21.25
2018-02-27T15:37:54.273Z,19.52
2018-02-27T15:40:22.010Z,24.67
2018-02-27T15:42:49.653Z,22.35
2018-02-27T15:45:17.331Z,22.00
2018-02-27T15:47:44.961Z,21.55
2018-02-27T15:50:12.620Z,22.52
2018-02-27T15:52:40.290Z,17.55
2018-02-27T15:55:08.689Z,26.55
2018-02-27T15:57:36.739Z,21.55
2018-02-27T16:00:04.670Z,29.42
2018-02-27T16:02:32.636Z,24.00
2018-02-27T16:05:00.381Z,22.27
2018-02-27T16:07:28.101Z,25.42
2018-02-27T16:09:55.733Z,24.98
2018-02-27T16:12:24.174Z,22.37
2018-02-27T16:14:51.809Z,19.85
2018-02-27T16:17:19.464Z,19.75
2018-02-27T16:19:47.137Z,25.52
2018-02-27T16:22:14.782Z,20.02
2018-02-27T16:24:42.433Z,30.60
2018-02-27T16:27:10.222Z,25.40
2018-02-27T16:29:37.906Z,20.65
2018-02-27T16:32:05.549Z,24.77
2018-02-27T16:34:33.277Z,25.15
2018-02-27T16:37:01.448Z,23.73
2018-02-27T16:39:29.193Z,28.35
2018-02-27T16:41:56.849Z,33.85
2018-02-27T16:44:25.599Z,27.45
2018-02-27T16:46:55.193Z,29.25
2018-02-27T16:49:22.949Z,32.53
2018-02-27T16:51:51.961Z,28.50
2018-02-27T16:54:19.693Z,52.60
2018-02-27T16:56:47.332Z,24.42
2018-02-27T16:59:14.980Z,35.08
2018-02-27T17:01:43.440Z,34.70
2018-02-27T17:04:11.076Z,31.17
2018-02-27T17:06:38.839Z,28.83
2018-02-27T17:09:06.541Z,49.72
2018-02-27T17:11:34.949Z,25.25
2018-02-27T17:14:02.581Z,28.02
2018-02-27T17:16:31.000Z,25.77
2018-02-27T17:18:58.634Z,31.33
2018-02-27T17:21:26.323Z,28.40
2018-02-27T17:23:55.094Z,29.75
2018-02-27T17:26:24.341Z,31.33
2018-02-27T17:28:52.365Z,22.65
2018-02-27T17:31:20.316Z,32.13
2018-02-27T17:33:48.171Z,24.75
2018-02-27T17:36:16.672Z,28.95
2018-02-27T17:38:44.397Z,25.33
2018-02-27T17:41:12.801Z,27.75
2018-02-27T17:43:40.653Z,26.08
2018-02-27T17:46:09.068Z,24.58
2018-02-27T17:48:36.789Z,24.70
2018-02-27T17:51:05.252Z,33.55
2018-02-27T17:53:32.983Z,24.45
2018-02-27T17:56:00.631Z,28.90
2018-02-27T17:58:28.296Z,38.80
2018-02-27T18:00:55.976Z,41.85
2018-02-27T18:03:24.772Z,28.00
2018-02-27T18:05:53.574Z,32.53
2018-02-27T18:08:22.200Z,31.90
2018-02-27T18:10:50.479Z,29.45
2018-02-27T18:13:18.223Z,27.35
2018-02-27T18:15:46.904Z,29.48
2018-02-27T18:18:14.764Z,34.00
2018-02-27T18:20:42.429Z,27.70
2018-02-27T18:23:10.068Z,28.02
2018-02-27T18:25:38.526Z,23.67
2018-02-27T18:28:06.158Z,30.25
2018-02-27T18:30:33.793Z,30.12
2018-02-27T18:33:02.504Z,32.28
2018-02-27T18:35:30.193Z,28.75
2018-02-27T18:37:57.841Z,29.27
2018-02-27T18:40:25.502Z,32.17
2018-02-27T18:42:53.148Z,31.40
2018-02-27T18:45:20.781Z,30.75
2018-02-27T18:47:48.497Z,33.83
2018-02-27T18:50:16.136Z,27.15
2018-02-27T18:52:43.777Z,27.27
2018-02-27T18:55:11.461Z,38.50
2018-02-27T18:57:39.106Z,29.40
2018-02-27T19:00:06.764Z,24.67
2018-02-27T19:02:34.482Z,44.05
2018-02-27T19:05:02.885Z,32.50
2018-02-27T19:07:30.526Z,36.33
2018-02-27T19:09:58.968Z,34.40
2018-02-27T19:12:26.613Z,30.35
2018-02-27T19:14:55.019Z,31.08
2018-02-27T19:17:22.713Z,25.05
2018-02-27T19:19:51.121Z,34.50
2018-02-27T19:22:18.766Z,31.80
2018-02-27T19:24:46.460Z,29.60
2018-02-27T19:27:14.103Z,40.58
2018-02-27T19:29:41.753Z,37.85
2018-02-27T19:32:09.433Z,37.72
2018-02-27T19:34:37.081Z,31.08
2018-02-27T19:37:04.716Z,49.90
2018-02-27T19:39:32.403Z,37.50
2018-02-27T19:42:00.052Z,34.67
2018-02-27T19:44:27.712Z,30.42
2018-02-27T19:46:55.450Z,37.25
2018-02-27T19:49:23.873Z,25.62
2018-02-27T19:51:51.515Z,41.70
2018-02-27T19:54:19.196Z,45.30
2018-02-27T19:56:46.833Z,40.38
2018-02-27T19:59:14.476Z,40.78
2018-02-27T20:01:42.906Z,46.15
2018-02-27T20:04:10.594Z,37.78
2018-02-27T20:06:38.254Z,43.53
2018-02-27T20:09:05.897Z,38.92
2018-02-27T20:11:35.105Z,35.60
2018-02-27T20:14:02.771Z,37.65
2018-02-27T20:16:30.445Z,29.70
2018-02-27T20:18:58.845Z,33.85
2018-02-27T20:21:26.537Z,41.55
2018-02-27T20:23:59.922Z,34.28
2018-02-27T20:26:27.604Z,37.15
2018-02-27T20:29:00.927Z,36.13
2018-02-27T20:31:28.597Z,35.35
2018-02-27T20:33:57.004Z,38.95
2018-02-27T20:36:24.637Z,38.50
2018-02-27T20:38:58.696Z,42.25
2018-02-27T20:41:26.329Z,43.80
2018-02-27T20:43:53.974Z,34.80
2018-02-27T20:46:21.670Z,38.92
2018-02-27T20:48:49.304Z,41.45
2018-02-27T20:51:16.976Z,36.08
2018-02-27T20:53:44.650Z,35.67
2018-02-27T20:56:12.292Z,45.17
2018-02-27T20:58:39.938Z,37.83
2018-02-27T21:01:08.390Z,37.70
2018-02-27T21:03:36.029Z,36.95
2018-02-27T21:06:03.706Z,36.60
2018-02-27T21:08:31.404Z,41.40
2018-02-27T21:10:59.049Z,38.63
2018-02-27T21:13:27.496Z,36.15
2018-02-27T21:15:55.200Z,44.72
2018-02-27T21:18:23.600Z,43.55
2018-02-27T21:20:51.237Z,34.35
2018-02-27T21:23:19.680Z,41.53
2018-02-27T21:25:47.333Z,32.13
2018-02-27T21:28:15.731Z,31.40
2018-02-27T21:30:43.416Z,43.28
2018-02-27T21:33:11.053Z,35.85
2018-02-27T21:35:38.684Z,39.08
2018-02-27T21:38:06.361Z,48.03
2018-02-27T21:40:33.999Z,37.47
2018-02-27T21:43:01.636Z,39.83
2018-02-27T21:45:29.296Z,37.58
2018-02-27T21:47:56.936Z,34.45
2018-02-27T21:50:24.605Z,41.20
2018-02-27T21:52:52.340Z,49.38
2018-02-27T21:55:20.751Z,33.75
2018-02-27T21:57:48.392Z,43.35
2018-02-27T22:00:16.829Z,43.60
2018-02-27T22:02:44.493Z,38.58
2018-02-27T22:05:12.124Z,39.28
2018-02-27T22:07:39.778Z,45.38
2018-02-27T22:10:07.420Z,41.28
2018-02-27T22:12:35.085Z,34.22
2018-02-27T22:15:02.725Z,40.12
2018-02-27T22:17:31.136Z,36.00
2018-02-27T22:19:58.829Z,44.92
2018-02-27T22:22:26.504Z,36.08
2018-02-27T22:24:54.928Z,49.90
2018-02-27T22:27:22.618Z,39.45
2018-02-27T22:29:50.252Z,41.37
2018-02-27T22:32:17.886Z,32.33
2018-02-27T22:34:46.337Z,40.40
2018-02-27T22:37:13.972Z,39.63
2018-02-27T22:39:41.609Z,41.30
2018-02-27T22:42:09.293Z,40.78
2018-02-27T22:44:36.924Z,36.40
2018-02-27T22:47:04.564Z,29.33
2018-02-27T22:49:32.992Z,45.08
2018-02-27T22:52:00.675Z,34.42
2018-02-27T22:54:28.322Z,37.33
2018-02-27T22:56:55.993Z,35.55
2018-02-27T22:59:23.629Z,42.92
2018-02-27T23:01:51.301Z,31.90
2018-02-27T23:04:18.937Z,36.05
2018-02-27T23:06:46.623Z,38.42
2018-02-27T23:09:14.285Z,34.60
2018-02-27T23:11:41.929Z,36.10
2018-02-27T23:14:09.678Z,39.38
2018-02-27T23:16:37.432Z,45.70
2018-02-27T23:19:05.068Z,33.00
2018-02-27T23:21:33.496Z,41.10
2018-02-27T23:24:09.100Z,29.40
2018-02-27T23:26:39.647Z,36.75
2018-02-27T23:29:08.624Z,36.72
